sensor_id;sensor_type;location;lat;lon;timestamp;P1;durP1;ratioP1;P2;durP2;ratioP2
83030;SDS011;72845;35.234;23.636;2024-02-16T00:00:30;4.07;;;2.30;;
83030;SDS011;72845;35.234;23.636;2024-02-16T00:02:56;5.18;;;2.45;;
83030;SDS011;72845;35.234;23.636;2024-02-16T00:05:22;5.95;;;2.38;;
83030;SDS011;72845;35.234;23.636;2024-02-16T00:10:13;5.63;;;2.50;;
83030;SDS011;72845;35.234;23.636;2024-02-16T00:12:38;5.15;;;2.42;;
83030;SDS011;72845;35.234;23.636;2024-02-16T00:15:05;15.65;;;3.25;;
83030;SDS011;72845;35.234;23.636;2024-02-16T00:17:31;5.85;;;2.40;;
83030;SDS011;72845;35.234;23.636;2024-02-16T00:19:58;5.45;;;2.63;;
83030;SDS011;72845;35.234;23.636;2024-02-16T00:22:24;5.07;;;2.55;;
83030;SDS011;72845;35.234;23.636;2024-02-16T00:24:50;3.95;;;2.80;;
83030;SDS011;72845;35.234;23.636;2024-02-16T00:27:15;5.25;;;2.83;;
83030;SDS011;72845;35.234;23.636;2024-02-16T00:29:41;6.47;;;3.03;;
83030;SDS011;72845;35.234;23.636;2024-02-16T00:34:32;5.35;;;2.40;;
83030;SDS011;72845;35.234;23.636;2024-02-16T00:36:58;3.90;;;2.58;;
83030;SDS011;72845;35.234;23.636;2024-02-16T00:39:24;5.43;;;3.20;;
83030;SDS011;72845;35.234;23.636;2024-02-16T00:41:50;4.05;;;2.78;;
83030;SDS011;72845;35.234;23.636;2024-02-16T00:44:16;5.75;;;2.60;;
83030;SDS011;72845;35.234;23.636;2024-02-16T00:47:01;7.38;;;2.92;;
83030;SDS011;72845;35.234;23.636;2024-02-16T00:49:45;8.30;;;3.40;;
83030;SDS011;72845;35.234;23.636;2024-02-16T00:52:29;5.57;;;2.65;;
83030;SDS011;72845;35.234;23.636;2024-02-16T00:55:14;5.20;;;2.72;;
83030;SDS011;72845;35.234;23.636;2024-02-16T00:57:40;5.00;;;2.38;;
83030;SDS011;72845;35.234;23.636;2024-02-16T01:00:06;4.45;;;2.65;;
83030;SDS011;72845;35.234;23.636;2024-02-16T01:02:34;5.57;;;2.60;;
83030;SDS011;72845;35.234;23.636;2024-02-16T01:05:00;5.13;;;2.33;;
83030;SDS011;72845;35.234;23.636;2024-02-16T01:07:27;4.70;;;2.53;;
83030;SDS011;72845;35.234;23.636;2024-02-16T01:09:53;6.78;;;2.55;;
83030;SDS011;72845;35.234;23.636;2024-02-16T01:12:19;5.90;;;2.53;;
83030;SDS011;72845;35.234;23.636;2024-02-16T01:14:45;5.35;;;2.53;;
83030;SDS011;72845;35.234;23.636;2024-02-16T01:17:10;5.03;;;2.67;;
83030;SDS011;72845;35.234;23.636;2024-02-16T01:19:36;4.80;;;2.50;;
83030;SDS011;72845;35.234;23.636;2024-02-16T01:22:01;4.50;;;2.97;;
83030;SDS011;72845;35.234;23.636;2024-02-16T01:24:27;5.72;;;2.70;;
83030;SDS011;72845;35.234;23.636;2024-02-16T01:29:18;3.83;;;2.50;;
83030;SDS011;72845;35.234;23.636;2024-02-16T01:31:44;6.57;;;2.60;;
83030;SDS011;72845;35.234;23.636;2024-02-16T01:34:10;3.80;;;2.45;;
83030;SDS011;72845;35.234;23.636;2024-02-16T01:36:36;7.10;;;3.35;;
83030;SDS011;72845;35.234;23.636;2024-02-16T01:39:01;7.38;;;4.10;;
83030;SDS011;72845;35.234;23.636;2024-02-16T01:41:27;4.68;;;2.67;;
83030;SDS011;72845;35.234;23.636;2024-02-16T01:43:53;3.47;;;2.42;;
83030;SDS011;72845;35.234;23.636;2024-02-16T01:46:20;9.23;;;3.45;;
83030;SDS011;72845;35.234;23.636;2024-02-16T01:48:46;6.40;;;3.17;;
83030;SDS011;72845;35.234;23.636;2024-02-16T01:51:12;4.97;;;2.65;;
83030;SDS011;72845;35.234;23.636;2024-02-16T01:53:38;5.40;;;3.08;;
83030;SDS011;72845;35.234;23.636;2024-02-16T01:56:04;6.65;;;3.55;;
83030;SDS011;72845;35.234;23.636;2024-02-16T01:58:30;5.22;;;2.75;;
83030;SDS011;72845;35.234;23.636;2024-02-16T02:00:56;9.32;;;3.03;;
83030;SDS011;72845;35.234;23.636;2024-02-16T02:03:21;6.35;;;2.60;;
83030;SDS011;72845;35.234;23.636;2024-02-16T02:05:48;7.57;;;3.20;;
83030;SDS011;72845;35.234;23.636;2024-02-16T02:08:15;6.78;;;2.80;;
83030;SDS011;72845;35.234;23.636;2024-02-16T02:10:41;5.68;;;2.70;;
83030;SDS011;72845;35.234;23.636;2024-02-16T02:13:07;4.13;;;2.30;;
83030;SDS011;72845;35.234;23.636;2024-02-16T02:15:33;5.00;;;2.58;;
83030;SDS011;72845;35.234;23.636;2024-02-16T02:17:59;15.27;;;3.13;;
83030;SDS011;72845;35.234;23.636;2024-02-16T02:20:24;7.53;;;3.00;;
83030;SDS011;72845;35.234;23.636;2024-02-16T02:22:50;10.18;;;3.00;;
83030;SDS011;72845;35.234;23.636;2024-02-16T02:25:16;3.40;;;2.40;;
83030;SDS011;72845;35.234;23.636;2024-02-16T02:27:41;5.75;;;2.80;;
83030;SDS011;72845;35.234;23.636;2024-02-16T02:30:08;6.78;;;3.08;;
83030;SDS011;72845;35.234;23.636;2024-02-16T02:32:51;8.02;;;2.58;;
83030;SDS011;72845;35.234;23.636;2024-02-16T02:35:18;9.35;;;3.10;;
83030;SDS011;72845;35.234;23.636;2024-02-16T02:37:43;9.13;;;2.88;;
83030;SDS011;72845;35.234;23.636;2024-02-16T02:40:09;6.43;;;2.65;;
83030;SDS011;72845;35.234;23.636;2024-02-16T02:42:35;8.23;;;3.35;;
83030;SDS011;72845;35.234;23.636;2024-02-16T02:45:03;8.45;;;2.70;;
83030;SDS011;72845;35.234;23.636;2024-02-16T02:47:29;5.50;;;3.20;;
83030;SDS011;72845;35.234;23.636;2024-02-16T02:49:55;6.18;;;2.72;;
83030;SDS011;72845;35.234;23.636;2024-02-16T02:52:21;5.28;;;2.60;;
83030;SDS011;72845;35.234;23.636;2024-02-16T02:54:46;6.28;;;2.53;;
83030;SDS011;72845;35.234;23.636;2024-02-16T02:57:12;8.20;;;2.90;;
83030;SDS011;72845;35.234;23.636;2024-02-16T02:59:38;4.38;;;3.13;;
83030;SDS011;72845;35.234;23.636;2024-02-16T03:02:04;5.70;;;2.60;;
83030;SDS011;72845;35.234;23.636;2024-02-16T03:04:29;5.22;;;2.72;;
83030;SDS011;72845;35.234;23.636;2024-02-16T03:06:55;6.38;;;2.60;;
83030;SDS011;72845;35.234;23.636;2024-02-16T03:09:20;9.35;;;3.03;;
83030;SDS011;72845;35.234;23.636;2024-02-16T03:11:48;7.97;;;3.50;;
83030;SDS011;72845;35.234;23.636;2024-02-16T03:14:13;5.97;;;2.35;;
83030;SDS011;72845;35.234;23.636;2024-02-16T03:16:39;4.85;;;3.05;;
83030;SDS011;72845;35.234;23.636;2024-02-16T03:19:07;6.90;;;2.97;;
83030;SDS011;72845;35.234;23.636;2024-02-16T03:21:36;8.15;;;2.70;;
83030;SDS011;72845;35.234;23.636;2024-02-16T03:24:02;14.10;;;3.05;;
83030;SDS011;72845;35.234;23.636;2024-02-16T03:26:29;3.50;;;2.47;;
83030;SDS011;72845;35.234;23.636;2024-02-16T03:28:54;5.70;;;2.30;;
83030;SDS011;72845;35.234;23.636;2024-02-16T03:31:24;4.07;;;2.90;;
83030;SDS011;72845;35.234;23.636;2024-02-16T03:33:50;4.80;;;2.15;;
83030;SDS011;72845;35.234;23.636;2024-02-16T03:36:17;10.13;;;2.85;;
83030;SDS011;72845;35.234;23.636;2024-02-16T03:38:43;7.80;;;2.83;;
83030;SDS011;72845;35.234;23.636;2024-02-16T03:41:17;4.93;;;2.30;;
83030;SDS011;72845;35.234;23.636;2024-02-16T03:43:44;6.32;;;2.80;;
83030;SDS011;72845;35.234;23.636;2024-02-16T03:46:10;7.10;;;2.65;;
83030;SDS011;72845;35.234;23.636;2024-02-16T03:48:35;6.15;;;2.60;;
83030;SDS011;72845;35.234;23.636;2024-02-16T03:51:01;4.72;;;2.10;;
83030;SDS011;72845;35.234;23.636;2024-02-16T03:53:28;3.80;;;2.00;;
83030;SDS011;72845;35.234;23.636;2024-02-16T03:56:19;5.72;;;2.15;;
83030;SDS011;72845;35.234;23.636;2024-02-16T03:58:46;3.58;;;2.50;;
83030;SDS011;72845;35.234;23.636;2024-02-16T04:01:11;6.75;;;2.42;;
83030;SDS011;72845;35.234;23.636;2024-02-16T04:03:38;3.97;;;2.38;;
83030;SDS011;72845;35.234;23.636;2024-02-16T04:06:04;3.58;;;2.30;;
83030;SDS011;72845;35.234;23.636;2024-02-16T04:08:30;3.85;;;2.20;;
83030;SDS011;72845;35.234;23.636;2024-02-16T04:10:55;4.32;;;2.22;;
83030;SDS011;72845;35.234;23.636;2024-02-16T04:13:21;4.88;;;2.38;;
83030;SDS011;72845;35.234;23.636;2024-02-16T04:18:12;6.55;;;2.35;;
83030;SDS011;72845;35.234;23.636;2024-02-16T04:23:03;6.70;;;2.65;;
83030;SDS011;72845;35.234;23.636;2024-02-16T04:25:29;6.53;;;2.40;;
83030;SDS011;72845;35.234;23.636;2024-02-16T04:30:20;6.03;;;2.63;;
83030;SDS011;72845;35.234;23.636;2024-02-16T04:32:45;5.25;;;2.33;;
83030;SDS011;72845;35.234;23.636;2024-02-16T04:35:11;4.53;;;2.10;;
83030;SDS011;72845;35.234;23.636;2024-02-16T04:37:37;8.38;;;1.88;;
83030;SDS011;72845;35.234;23.636;2024-02-16T04:40:04;4.13;;;2.13;;
83030;SDS011;72845;35.234;23.636;2024-02-16T04:42:31;4.35;;;2.30;;
83030;SDS011;72845;35.234;23.636;2024-02-16T04:44:56;6.63;;;2.22;;
83030;SDS011;72845;35.234;23.636;2024-02-16T04:47:22;7.95;;;2.08;;
83030;SDS011;72845;35.234;23.636;2024-02-16T04:49:48;5.45;;;2.03;;
83030;SDS011;72845;35.234;23.636;2024-02-16T04:52:13;6.43;;;2.75;;
83030;SDS011;72845;35.234;23.636;2024-02-16T04:54:39;9.98;;;3.33;;
83030;SDS011;72845;35.234;23.636;2024-02-16T04:57:06;5.20;;;3.00;;
83030;SDS011;72845;35.234;23.636;2024-02-16T04:59:32;4.07;;;1.70;;
83030;SDS011;72845;35.234;23.636;2024-02-16T05:01:58;5.65;;;2.00;;
83030;SDS011;72845;35.234;23.636;2024-02-16T05:04:23;3.67;;;1.45;;
83030;SDS011;72845;35.234;23.636;2024-02-16T05:06:49;4.10;;;2.10;;
83030;SDS011;72845;35.234;23.636;2024-02-16T05:09:17;7.10;;;1.92;;
83030;SDS011;72845;35.234;23.636;2024-02-16T05:11:43;4.70;;;1.95;;
83030;SDS011;72845;35.234;23.636;2024-02-16T05:14:10;7.75;;;2.45;;
83030;SDS011;72845;35.234;23.636;2024-02-16T05:16:37;4.53;;;1.92;;
83030;SDS011;72845;35.234;23.636;2024-02-16T05:19:03;5.50;;;2.22;;
83030;SDS011;72845;35.234;23.636;2024-02-16T05:21:47;6.43;;;2.22;;
83030;SDS011;72845;35.234;23.636;2024-02-16T05:24:13;5.38;;;2.15;;
83030;SDS011;72845;35.234;23.636;2024-02-16T05:29:04;6.57;;;2.42;;
83030;SDS011;72845;35.234;23.636;2024-02-16T05:31:30;7.35;;;2.38;;
83030;SDS011;72845;35.234;23.636;2024-02-16T05:33:56;7.57;;;2.20;;
83030;SDS011;72845;35.234;23.636;2024-02-16T05:36:22;7.45;;;2.78;;
83030;SDS011;72845;35.234;23.636;2024-02-16T05:38:53;8.27;;;2.60;;
83030;SDS011;72845;35.234;23.636;2024-02-16T05:41:21;4.53;;;2.08;;
83030;SDS011;72845;35.234;23.636;2024-02-16T05:43:46;7.65;;;2.88;;
83030;SDS011;72845;35.234;23.636;2024-02-16T05:46:15;5.72;;;2.38;;
83030;SDS011;72845;35.234;23.636;2024-02-16T05:48:42;7.88;;;2.78;;
83030;SDS011;72845;35.234;23.636;2024-02-16T05:51:07;8.05;;;2.90;;
83030;SDS011;72845;35.234;23.636;2024-02-16T05:53:34;7.18;;;2.55;;
83030;SDS011;72845;35.234;23.636;2024-02-16T05:55:59;4.65;;;2.40;;
83030;SDS011;72845;35.234;23.636;2024-02-16T05:58:25;10.70;;;3.00;;
83030;SDS011;72845;35.234;23.636;2024-02-16T06:00:51;5.93;;;2.58;;
83030;SDS011;72845;35.234;23.636;2024-02-16T06:03:17;7.05;;;2.53;;
83030;SDS011;72845;35.234;23.636;2024-02-16T06:05:42;7.20;;;2.70;;
83030;SDS011;72845;35.234;23.636;2024-02-16T06:08:11;5.95;;;3.40;;
83030;SDS011;72845;35.234;23.636;2024-02-16T06:10:37;8.50;;;2.53;;
83030;SDS011;72845;35.234;23.636;2024-02-16T06:13:03;6.60;;;2.75;;
83030;SDS011;72845;35.234;23.636;2024-02-16T06:15:28;7.88;;;2.95;;
83030;SDS011;72845;35.234;23.636;2024-02-16T06:17:55;11.35;;;2.80;;
83030;SDS011;72845;35.234;23.636;2024-02-16T06:20:21;7.97;;;3.08;;
83030;SDS011;72845;35.234;23.636;2024-02-16T06:22:47;6.68;;;3.33;;
83030;SDS011;72845;35.234;23.636;2024-02-16T06:25:12;5.07;;;3.00;;
83030;SDS011;72845;35.234;23.636;2024-02-16T06:27:38;6.95;;;2.85;;
83030;SDS011;72845;35.234;23.636;2024-02-16T06:30:04;7.70;;;3.63;;
83030;SDS011;72845;35.234;23.636;2024-02-16T06:32:30;8.40;;;3.47;;
83030;SDS011;72845;35.234;23.636;2024-02-16T06:34:56;10.75;;;2.97;;
83030;SDS011;72845;35.234;23.636;2024-02-16T06:37:22;11.40;;;3.25;;
83030;SDS011;72845;35.234;23.636;2024-02-16T06:39:48;6.53;;;2.70;;
83030;SDS011;72845;35.234;23.636;2024-02-16T06:42:32;5.70;;;2.78;;
83030;SDS011;72845;35.234;23.636;2024-02-16T06:44:59;3.38;;;2.03;;
83030;SDS011;72845;35.234;23.636;2024-02-16T06:47:24;4.43;;;2.13;;
83030;SDS011;72845;35.234;23.636;2024-02-16T06:49:51;3.75;;;2.03;;
83030;SDS011;72845;35.234;23.636;2024-02-16T06:52:16;5.80;;;2.15;;
83030;SDS011;72845;35.234;23.636;2024-02-16T06:54:42;2.90;;;1.85;;
83030;SDS011;72845;35.234;23.636;2024-02-16T06:57:08;5.28;;;2.22;;
83030;SDS011;72845;35.234;23.636;2024-02-16T06:59:33;7.55;;;2.75;;
83030;SDS011;72845;35.234;23.636;2024-02-16T07:01:59;5.15;;;2.42;;
83030;SDS011;72845;35.234;23.636;2024-02-16T07:04:24;8.02;;;2.63;;
83030;SDS011;72845;35.234;23.636;2024-02-16T07:06:50;10.23;;;3.80;;
83030;SDS011;72845;35.234;23.636;2024-02-16T07:09:16;7.13;;;3.55;;
83030;SDS011;72845;35.234;23.636;2024-02-16T07:11:41;8.00;;;3.38;;
83030;SDS011;72845;35.234;23.636;2024-02-16T07:14:08;10.30;;;3.60;;
83030;SDS011;72845;35.234;23.636;2024-02-16T07:16:34;6.63;;;3.10;;
83030;SDS011;72845;35.234;23.636;2024-02-16T07:19:00;8.40;;;3.67;;
83030;SDS011;72845;35.234;23.636;2024-02-16T07:21:25;5.13;;;2.90;;
83030;SDS011;72845;35.234;23.636;2024-02-16T07:23:52;7.65;;;2.95;;
83030;SDS011;72845;35.234;23.636;2024-02-16T07:26:17;8.35;;;3.42;;
83030;SDS011;72845;35.234;23.636;2024-02-16T07:28:44;12.38;;;3.30;;
83030;SDS011;72845;35.234;23.636;2024-02-16T07:31:10;11.63;;;2.95;;
83030;SDS011;72845;35.234;23.636;2024-02-16T07:33:36;6.28;;;2.97;;
83030;SDS011;72845;35.234;23.636;2024-02-16T07:36:02;6.55;;;2.55;;
83030;SDS011;72845;35.234;23.636;2024-02-16T07:38:27;7.85;;;3.08;;
83030;SDS011;72845;35.234;23.636;2024-02-16T07:40:55;5.18;;;2.30;;
83030;SDS011;72845;35.234;23.636;2024-02-16T07:43:21;6.93;;;2.45;;
83030;SDS011;72845;35.234;23.636;2024-02-16T07:45:49;4.97;;;2.67;;
83030;SDS011;72845;35.234;23.636;2024-02-16T07:48:15;6.28;;;2.35;;
83030;SDS011;72845;35.234;23.636;2024-02-16T07:50:40;6.90;;;2.60;;
83030;SDS011;72845;35.234;23.636;2024-02-16T07:53:06;7.90;;;3.85;;
83030;SDS011;72845;35.234;23.636;2024-02-16T07:55:32;7.72;;;3.75;;
83030;SDS011;72845;35.234;23.636;2024-02-16T07:57:58;6.95;;;3.13;;
83030;SDS011;72845;35.234;23.636;2024-02-16T08:00:24;8.13;;;3.10;;
83030;SDS011;72845;35.234;23.636;2024-02-16T08:02:50;7.85;;;2.80;;
83030;SDS011;72845;35.234;23.636;2024-02-16T08:05:16;7.45;;;3.03;;
83030;SDS011;72845;35.234;23.636;2024-02-16T08:07:44;5.28;;;2.67;;
83030;SDS011;72845;35.234;23.636;2024-02-16T08:10:10;4.78;;;2.25;;
83030;SDS011;72845;35.234;23.636;2024-02-16T08:12:54;6.97;;;2.40;;
83030;SDS011;72845;35.234;23.636;2024-02-16T08:15:37;7.75;;;2.72;;
83030;SDS011;72845;35.234;23.636;2024-02-16T08:18:04;6.25;;;2.58;;
83030;SDS011;72845;35.234;23.636;2024-02-16T08:20:30;9.38;;;3.40;;
83030;SDS011;72845;35.234;23.636;2024-02-16T08:22:56;7.88;;;2.72;;
83030;SDS011;72845;35.234;23.636;2024-02-16T08:25:23;7.40;;;3.10;;
83030;SDS011;72845;35.234;23.636;2024-02-16T08:27:48;8.80;;;4.53;;
83030;SDS011;72845;35.234;23.636;2024-02-16T08:30:14;7.18;;;2.63;;
83030;SDS011;72845;35.234;23.636;2024-02-16T08:32:40;9.18;;;3.13;;
83030;SDS011;72845;35.234;23.636;2024-02-16T08:35:06;6.45;;;2.55;;
83030;SDS011;72845;35.234;23.636;2024-02-16T08:37:31;4.35;;;2.22;;
83030;SDS011;72845;35.234;23.636;2024-02-16T08:39:58;5.95;;;2.58;;
83030;SDS011;72845;35.234;23.636;2024-02-16T08:42:24;10.45;;;2.45;;
83030;SDS011;72845;35.234;23.636;2024-02-16T08:44:49;7.07;;;2.80;;
83030;SDS011;72845;35.234;23.636;2024-02-16T08:47:15;6.50;;;2.70;;
83030;SDS011;72845;35.234;23.636;2024-02-16T08:49:41;8.25;;;3.30;;
83030;SDS011;72845;35.234;23.636;2024-02-16T08:52:07;6.45;;;2.75;;
83030;SDS011;72845;35.234;23.636;2024-02-16T08:54:34;5.57;;;2.80;;
83030;SDS011;72845;35.234;23.636;2024-02-16T08:56:59;6.57;;;2.63;;
83030;SDS011;72845;35.234;23.636;2024-02-16T08:59:25;8.73;;;3.53;;
83030;SDS011;72845;35.234;23.636;2024-02-16T09:01:52;5.13;;;2.90;;
83030;SDS011;72845;35.234;23.636;2024-02-16T09:04:18;5.07;;;2.80;;
83030;SDS011;72845;35.234;23.636;2024-02-16T09:06:44;9.00;;;2.58;;
83030;SDS011;72845;35.234;23.636;2024-02-16T09:09:10;6.00;;;2.50;;
83030;SDS011;72845;35.234;23.636;2024-02-16T09:11:36;9.55;;;3.40;;
83030;SDS011;72845;35.234;23.636;2024-02-16T09:14:02;6.38;;;2.88;;
83030;SDS011;72845;35.234;23.636;2024-02-16T09:16:48;5.53;;;2.67;;
83030;SDS011;72845;35.234;23.636;2024-02-16T09:19:14;6.68;;;2.08;;
83030;SDS011;72845;35.234;23.636;2024-02-16T09:21:39;5.78;;;2.42;;
83030;SDS011;72845;35.234;23.636;2024-02-16T09:24:05;4.47;;;2.65;;
83030;SDS011;72845;35.234;23.636;2024-02-16T09:26:36;8.77;;;2.45;;
83030;SDS011;72845;35.234;23.636;2024-02-16T09:29:02;6.35;;;2.58;;
83030;SDS011;72845;35.234;23.636;2024-02-16T09:31:27;6.75;;;2.33;;
83030;SDS011;72845;35.234;23.636;2024-02-16T09:33:53;5.55;;;2.30;;
83030;SDS011;72845;35.234;23.636;2024-02-16T09:36:22;6.43;;;3.10;;
83030;SDS011;72845;35.234;23.636;2024-02-16T09:38:48;6.65;;;2.53;;
83030;SDS011;72845;35.234;23.636;2024-02-16T09:41:14;3.08;;;2.03;;
83030;SDS011;72845;35.234;23.636;2024-02-16T09:43:43;2.70;;;1.70;;
83030;SDS011;72845;35.234;23.636;2024-02-16T09:46:08;3.97;;;1.90;;
83030;SDS011;72845;35.234;23.636;2024-02-16T09:48:34;5.20;;;2.05;;
83030;SDS011;72845;35.234;23.636;2024-02-16T09:51:01;18.27;;;2.55;;
83030;SDS011;72845;35.234;23.636;2024-02-16T09:53:27;5.65;;;1.90;;
83030;SDS011;72845;35.234;23.636;2024-02-16T09:55:54;2.67;;;1.77;;
83030;SDS011;72845;35.234;23.636;2024-02-16T09:58:19;3.38;;;1.60;;
83030;SDS011;72845;35.234;23.636;2024-02-16T10:00:49;3.92;;;1.83;;
83030;SDS011;72845;35.234;23.636;2024-02-16T10:03:24;5.35;;;1.90;;
83030;SDS011;72845;35.234;23.636;2024-02-16T10:05:51;3.88;;;1.63;;
83030;SDS011;72845;35.234;23.636;2024-02-16T10:08:18;4.15;;;2.03;;
83030;SDS011;72845;35.234;23.636;2024-02-16T10:10:44;3.95;;;1.60;;
83030;SDS011;72845;35.234;23.636;2024-02-16T10:13:09;2.53;;;1.60;;
83030;SDS011;72845;35.234;23.636;2024-02-16T10:15:37;2.97;;;1.55;;
83030;SDS011;72845;35.234;23.636;2024-02-16T10:18:05;2.97;;;1.25;;
83030;SDS011;72845;35.234;23.636;2024-02-16T10:20:32;3.28;;;1.20;;
83030;SDS011;72845;35.234;23.636;2024-02-16T10:23:08;1.55;;;1.30;;
83030;SDS011;72845;35.234;23.636;2024-02-16T10:25:34;3.80;;;1.67;;
83030;SDS011;72845;35.234;23.636;2024-02-16T10:28:02;3.78;;;1.30;;
83030;SDS011;72845;35.234;23.636;2024-02-16T10:30:29;4.22;;;1.65;;
83030;SDS011;72845;35.234;23.636;2024-02-16T10:32:55;2.55;;;1.40;;
83030;SDS011;72845;35.234;23.636;2024-02-16T10:35:21;3.47;;;1.25;;
83030;SDS011;72845;35.234;23.636;2024-02-16T10:37:47;5.00;;;1.30;;
83030;SDS011;72845;35.234;23.636;2024-02-16T10:40:13;1.83;;;1.20;;
83030;SDS011;72845;35.234;23.636;2024-02-16T10:42:40;2.10;;;1.17;;
83030;SDS011;72845;35.234;23.636;2024-02-16T10:45:06;1.48;;;0.90;;
83030;SDS011;72845;35.234;23.636;2024-02-16T10:47:31;1.88;;;0.70;;
83030;SDS011;72845;35.234;23.636;2024-02-16T10:49:57;4.05;;;0.77;;
83030;SDS011;72845;35.234;23.636;2024-02-16T10:52:23;1.17;;;0.88;;
83030;SDS011;72845;35.234;23.636;2024-02-16T10:55:10;2.67;;;1.15;;
83030;SDS011;72845;35.234;23.636;2024-02-16T10:57:36;1.02;;;0.90;;
83030;SDS011;72845;35.234;23.636;2024-02-16T11:00:10;3.90;;;0.85;;
83030;SDS011;72845;35.234;23.636;2024-02-16T11:05:34;0.98;;;0.77;;
83030;SDS011;72845;35.234;23.636;2024-02-16T11:08:03;4.65;;;0.95;;
83030;SDS011;72845;35.234;23.636;2024-02-16T11:10:30;3.25;;;1.48;;
83030;SDS011;72845;35.234;23.636;2024-02-16T11:13:00;7.15;;;1.77;;
83030;SDS011;72845;35.234;23.636;2024-02-16T11:15:27;1.52;;;0.90;;
83030;SDS011;72845;35.234;23.636;2024-02-16T11:17:55;4.00;;;1.40;;
83030;SDS011;72845;35.234;23.636;2024-02-16T11:20:23;2.30;;;1.20;;
83030;SDS011;72845;35.234;23.636;2024-02-16T11:22:50;2.47;;;1.42;;
83030;SDS011;72845;35.234;23.636;2024-02-16T11:25:16;2.70;;;1.33;;
83030;SDS011;72845;35.234;23.636;2024-02-16T11:27:41;5.82;;;1.05;;
83030;SDS011;72845;35.234;23.636;2024-02-16T11:30:11;2.25;;;1.10;;
83030;SDS011;72845;35.234;23.636;2024-02-16T11:32:37;2.28;;;1.40;;
83030;SDS011;72845;35.234;23.636;2024-02-16T11:35:06;4.78;;;1.30;;
83030;SDS011;72845;35.234;23.636;2024-02-16T11:37:32;2.10;;;1.30;;
83030;SDS011;72845;35.234;23.636;2024-02-16T11:39:58;1.60;;;1.05;;
83030;SDS011;72845;35.234;23.636;2024-02-16T11:42:24;4.00;;;1.30;;
83030;SDS011;72845;35.234;23.636;2024-02-16T11:44:53;3.05;;;1.17;;
83030;SDS011;72845;35.234;23.636;2024-02-16T11:47:20;2.58;;;1.15;;
83030;SDS011;72845;35.234;23.636;2024-02-16T11:50:08;4.65;;;1.52;;
83030;SDS011;72845;35.234;23.636;2024-02-16T11:52:38;4.50;;;1.40;;
83030;SDS011;72845;35.234;23.636;2024-02-16T11:55:07;6.35;;;1.50;;
83030;SDS011;72845;35.234;23.636;2024-02-16T11:57:34;2.55;;;1.40;;
83030;SDS011;72845;35.234;23.636;2024-02-16T12:00:00;7.43;;;1.48;;
83030;SDS011;72845;35.234;23.636;2024-02-16T12:02:46;4.22;;;1.60;;
83030;SDS011;72845;35.234;23.636;2024-02-16T12:05:13;3.13;;;1.50;;
83030;SDS011;72845;35.234;23.636;2024-02-16T12:07:39;4.28;;;1.85;;
83030;SDS011;72845;35.234;23.636;2024-02-16T12:10:05;6.50;;;1.88;;
83030;SDS011;72845;35.234;23.636;2024-02-16T12:12:31;4.20;;;2.03;;
83030;SDS011;72845;35.234;23.636;2024-02-16T12:14:57;3.95;;;2.17;;
83030;SDS011;72845;35.234;23.636;2024-02-16T12:17:23;6.88;;;2.40;;
83030;SDS011;72845;35.234;23.636;2024-02-16T12:19:49;4.68;;;1.95;;
83030;SDS011;72845;35.234;23.636;2024-02-16T12:22:19;5.90;;;2.03;;
83030;SDS011;72845;35.234;23.636;2024-02-16T12:24:45;10.07;;;2.30;;
83030;SDS011;72845;35.234;23.636;2024-02-16T12:27:11;5.70;;;2.17;;
83030;SDS011;72845;35.234;23.636;2024-02-16T12:29:36;3.75;;;1.80;;
83030;SDS011;72845;35.234;23.636;2024-02-16T12:32:02;3.95;;;1.55;;
83030;SDS011;72845;35.234;23.636;2024-02-16T12:34:28;3.33;;;1.90;;
83030;SDS011;72845;35.234;23.636;2024-02-16T12:36:53;2.72;;;1.60;;
83030;SDS011;72845;35.234;23.636;2024-02-16T12:39:19;2.15;;;1.48;;
83030;SDS011;72845;35.234;23.636;2024-02-16T12:41:46;5.63;;;2.05;;
83030;SDS011;72845;35.234;23.636;2024-02-16T12:44:12;4.18;;;2.25;;
83030;SDS011;72845;35.234;23.636;2024-02-16T12:46:37;5.57;;;2.25;;
83030;SDS011;72845;35.234;23.636;2024-02-16T12:49:04;5.88;;;2.40;;
83030;SDS011;72845;35.234;23.636;2024-02-16T12:51:29;7.53;;;2.30;;
83030;SDS011;72845;35.234;23.636;2024-02-16T12:53:56;4.18;;;2.38;;
83030;SDS011;72845;35.234;23.636;2024-02-16T12:56:22;3.97;;;1.88;;
83030;SDS011;72845;35.234;23.636;2024-02-16T12:58:48;5.82;;;2.28;;
83030;SDS011;72845;35.234;23.636;2024-02-16T13:01:13;4.53;;;1.80;;
83030;SDS011;72845;35.234;23.636;2024-02-16T13:03:39;2.72;;;1.73;;
83030;SDS011;72845;35.234;23.636;2024-02-16T13:06:05;4.55;;;1.90;;
83030;SDS011;72845;35.234;23.636;2024-02-16T13:08:30;5.38;;;1.77;;
83030;SDS011;72845;35.234;23.636;2024-02-16T13:11:15;5.38;;;2.00;;
83030;SDS011;72845;35.234;23.636;2024-02-16T13:13:41;8.15;;;1.98;;
83030;SDS011;72845;35.234;23.636;2024-02-16T13:16:06;4.10;;;2.50;;
83030;SDS011;72845;35.234;23.636;2024-02-16T13:18:32;3.47;;;2.28;;
83030;SDS011;72845;35.234;23.636;2024-02-16T13:20:58;4.90;;;2.67;;
83030;SDS011;72845;35.234;23.636;2024-02-16T13:23:23;9.93;;;2.70;;
83030;SDS011;72845;35.234;23.636;2024-02-16T13:25:49;3.75;;;2.03;;
83030;SDS011;72845;35.234;23.636;2024-02-16T13:28:14;3.67;;;2.05;;
83030;SDS011;72845;35.234;23.636;2024-02-16T13:30:41;3.95;;;2.08;;
83030;SDS011;72845;35.234;23.636;2024-02-16T13:33:07;2.92;;;2.05;;
83030;SDS011;72845;35.234;23.636;2024-02-16T13:35:34;6.20;;;2.80;;
83030;SDS011;72845;35.234;23.636;2024-02-16T13:38:01;4.65;;;2.60;;
83030;SDS011;72845;35.234;23.636;2024-02-16T13:40:27;4.38;;;2.20;;
83030;SDS011;72845;35.234;23.636;2024-02-16T13:42:53;6.65;;;2.85;;
83030;SDS011;72845;35.234;23.636;2024-02-16T13:45:24;4.07;;;2.55;;
83030;SDS011;72845;35.234;23.636;2024-02-16T13:47:51;7.15;;;2.58;;
83030;SDS011;72845;35.234;23.636;2024-02-16T13:50:17;6.10;;;2.63;;
83030;SDS011;72845;35.234;23.636;2024-02-16T13:52:42;6.13;;;2.90;;
83030;SDS011;72845;35.234;23.636;2024-02-16T13:55:08;5.50;;;2.30;;
83030;SDS011;72845;35.234;23.636;2024-02-16T13:57:34;4.00;;;2.00;;
83030;SDS011;72845;35.234;23.636;2024-02-16T13:59:59;4.60;;;2.42;;
83030;SDS011;72845;35.234;23.636;2024-02-16T14:02:25;16.33;;;3.05;;
83030;SDS011;72845;35.234;23.636;2024-02-16T14:04:51;8.15;;;2.80;;
83030;SDS011;72845;35.234;23.636;2024-02-16T14:07:17;5.75;;;2.88;;
83030;SDS011;72845;35.234;23.636;2024-02-16T14:09:43;3.40;;;2.50;;
83030;SDS011;72845;35.234;23.636;2024-02-16T14:12:08;4.65;;;2.75;;
83030;SDS011;72845;35.234;23.636;2024-02-16T14:14:34;5.80;;;2.92;;
83030;SDS011;72845;35.234;23.636;2024-02-16T14:17:00;5.22;;;2.83;;
83030;SDS011;72845;35.234;23.636;2024-02-16T14:19:44;12.63;;;3.38;;
83030;SDS011;72845;35.234;23.636;2024-02-16T14:22:10;11.65;;;3.15;;
83030;SDS011;72845;35.234;23.636;2024-02-16T14:24:37;5.65;;;3.13;;
83030;SDS011;72845;35.234;23.636;2024-02-16T14:27:03;5.95;;;2.80;;
83030;SDS011;72845;35.234;23.636;2024-02-16T14:29:29;6.20;;;3.35;;
